Bitte eine E-Mail-Adresse für das Benutzerkonto eingeben. Ein Bestätigungscode wird dann an diese verschickt. Sobald der Code vorliegt, kann ein neues Passwort für das Benutzerkonto festgelegt werden.

 

 

Flugplatzfest 2019

Anmeldung Vans Treffen

WebCam

  
Kamera Halle
Kamera Vorfeld
Wetter EDDS

METAR

EDDS 200920Z 36004KT 330V040 9999 FEW038 BKN049 18/11 Q1022 NOSIG =
EDDS 200500Z 2006/2106 29002KT CAVOK BECMG 2008/2011 33007KT PROB30 TEMPO 2015/2019 RA BECMG 2018/2021 VRB03KT


TAF

EDDS 200500Z 2006/2106 29002KT CAVOK BECMG 2008/2011 33007KT PROB30 TEMPO 2015/2019 RA BECMG 2018/2021 VRB03KT =


SR/SS

04:21 / 18:28 UTC
(EDSO 20-08-2019)